Mountain Home, Arkansas
Current Conditions -  °F | °C
As of 6:22 PM on Sunday 23 Nov 2014 (Local Time) from KBPK Reporting Station
Haze Haze  
Wind Chill: 56°   Ceiling: 200
Heat Index: 56°   Visibility: 0.75mi
Dew Point: 56°   Wind: 5mph
Humidity: 100%   Direction: 130°SE
Pressure: 29.32"   Gusts: NA
Location:  36.34°N, 92.38°W
Report Text: KBPK 240022Z AUTO 13004KT 3/4SM BR OVC002 13/13 A2932 RMK AO2 T01330133
Loading
Personal Weather Stations






























Interactive Weather Map New forecast layout! Learn more

10-Day Weather Forecast

Advertisements
Track Severe Weather on mobile